Time;durP1;ratioP1;P1;durP2;ratioP2;P2;SDS_P1;SDS_P2;PMS_P1;PMS_P2;Temp;Humidity;BMP_temperature;BMP_pressure;BME280_temperature;BME280_humidity;BME280_pressure;Samples;Min_cycle;Max_cycle;Signal;HPM_P1;HPM_P2
2021/01/26 00:01:26;;;;;;;27.23;15.80;;;2.80;99.90;;;;;;4976096;28;20519;-46
2021/01/26 00:03:53;;;;;;;30.10;16.13;;;2.80;99.90;;;;;;4979049;28;20516;-47
2021/01/26 00:06:20;;;;;;;24.17;13.67;;;2.70;99.90;;;;;;4974730;28;20454;-46
2021/01/26 00:08:47;;;;;;;33.90;16.20;;;2.80;99.90;;;;;;4973246;28;20455;-46
2021/01/26 00:11:14;;;;;;;27.70;15.63;;;2.70;99.90;;;;;;4976764;28;20443;-46
2021/01/26 00:13:40;;;;;;;24.80;12.27;;;2.80;99.90;;;;;;4983152;28;20787;-49
2021/01/26 00:16:07;;;;;;;28.87;15.37;;;2.80;99.90;;;;;;4969913;29;20444;-47
2021/01/26 00:18:35;;;;;;;24.90;14.47;;;2.80;99.90;;;;;;4986438;28;20459;-47
2021/01/26 00:21:04;;;;;;;23.17;13.07;;;2.80;99.90;;;;;;4991574;28;20478;-49
2021/01/26 00:23:31;;;;;;;29.13;15.60;;;2.80;99.90;;;;;;4984472;28;20550;-49
2021/01/26 00:25:57;;;;;;;26.13;13.33;;;2.70;99.90;;;;;;4972141;29;20451;-45
2021/01/26 00:28:23;;;;;;;29.03;16.10;;;2.70;99.90;;;;;;4983781;28;20486;-50
2021/01/26 00:30:50;;;;;;;28.50;16.00;;;2.70;99.90;;;;;;4984870;28;20439;-46
2021/01/26 00:33:19;;;;;;;24.67;13.50;;;2.70;99.90;;;;;;4970748;28;20451;-46
2021/01/26 00:35:47;;;;;;;25.13;12.47;;;2.70;99.90;;;;;;4973967;28;20491;-46
2021/01/26 00:38:13;;;;;;;25.27;14.30;;;2.70;99.90;;;;;;4971641;29;20810;-49
2021/01/26 00:40:40;;;;;;;24.30;14.03;;;2.70;99.90;;;;;;4972387;29;20523;-46
2021/01/26 00:43:07;;;;;;;26.67;15.93;;;2.70;99.90;;;;;;4972605;29;20448;-48
2021/01/26 00:45:34;;;;;;;27.10;13.17;;;2.70;99.90;;;;;;4971738;29;20498;-47
2021/01/26 00:48:00;;;;;;;32.97;14.00;;;2.70;99.90;;;;;;4971429;29;20436;-51
2021/01/26 00:50:28;;;;;;;30.87;15.20;;;2.70;99.90;;;;;;4971301;29;20471;-46
2021/01/26 00:52:56;;;;;;;27.00;12.43;;;2.70;99.90;;;;;;4971542;29;20444;-48
2021/01/26 00:55:24;;;;;;;23.70;12.53;;;2.70;99.90;;;;;;4966111;28;20472;-46
2021/01/26 00:57:56;;;;;;;23.93;13.50;;;2.70;99.90;;;;;;4973619;29;20444;-47
2021/01/26 01:00:25;;;;;;;28.50;15.03;;;2.70;99.90;;;;;;4971901;29;20462;-46
2021/01/26 01:02:51;;;;;;;24.13;13.43;;;2.70;99.90;;;;;;4971730;29;20526;-47
2021/01/26 01:05:18;;;;;;;37.10;18.20;;;2.70;99.90;;;;;;4972503;29;20431;-46
2021/01/26 01:07:44;;;;;;;22.57;12.90;;;2.70;99.90;;;;;;4965774;29;20455;-46
2021/01/26 01:10:15;;;;;;;26.53;14.73;;;2.70;99.90;;;;;;4972849;29;20444;-45
2021/01/26 01:12:41;;;;;;;22.47;14.57;;;2.70;99.90;;;;;;4971031;29;20448;-47
2021/01/26 01:15:09;;;;;;;20.73;12.73;;;2.70;99.90;;;;;;4970651;29;20575;-51
2021/01/26 01:17:36;;;;;;;27.77;15.57;;;2.70;99.90;;;;;;4973018;29;20478;-51
2021/01/26 01:20:03;;;;;;;30.40;15.73;;;2.70;99.90;;;;;;4963565;29;20450;-45
2021/01/26 01:25:06;;;;;;;28.10;15.70;;;2.70;99.90;;;;;;4933175;23;21142;-45
2021/01/26 01:27:33;;;;;;;25.90;15.37;;;2.60;99.90;;;;;;4898357;29;20458;-48
2021/01/26 01:30:00;;;;;;;31.77;16.17;;;2.60;99.90;;;;;;4898354;29;20447;-45
2021/01/26 01:32:26;;;;;;;32.90;15.27;;;2.60;99.90;;;;;;4917668;29;20469;-45
2021/01/26 01:34:52;;;;;;;25.60;13.90;;;2.50;99.90;;;;;;4917621;29;20868;-47
2021/01/26 01:37:19;;;;;;;33.90;16.73;;;2.60;99.90;;;;;;4917239;29;20766;-46
2021/01/26 01:39:45;;;;;;;35.20;16.10;;;2.60;99.90;;;;;;4917357;29;20466;-44
2021/01/26 01:42:12;;;;;;;30.83;15.07;;;2.60;99.90;;;;;;4917520;29;20449;-48
2021/01/26 01:44:39;;;;;;;26.80;15.40;;;2.60;99.90;;;;;;4920170;29;20452;-46
2021/01/26 01:47:10;;;;;;;30.53;16.10;;;2.60;99.90;;;;;;4920916;29;20489;-45
2021/01/26 01:49:41;;;;;;;26.47;16.17;;;2.60;99.90;;;;;;4920654;29;20454;-45
2021/01/26 01:52:13;;;;;;;24.90;14.07;;;2.70;99.90;;;;;;4920645;29;20445;-47
2021/01/26 01:54:44;;;;;;;30.40;16.93;;;2.70;99.90;;;;;;4920818;29;20473;-47
2021/01/26 01:57:21;;;;;;;34.20;17.50;;;2.70;99.90;;;;;;4920478;29;20449;-48
2021/01/26 01:59:55;;;;;;;33.70;17.80;;;2.70;99.90;;;;;;4923917;29;20785;-46
2021/01/26 02:02:21;;;;;;;32.77;18.87;;;2.70;99.90;;;;;;4920451;29;20461;-46
2021/01/26 02:04:47;;;;;;;26.10;13.93;;;2.70;99.90;;;;;;4920816;29;20975;-47
2021/01/26 02:07:14;;;;;;;27.10;15.60;;;2.70;99.90;;;;;;4920706;29;20842;-45
2021/01/26 02:09:41;;;;;;;28.03;15.43;;;2.70;99.90;;;;;;4920664;29;20516;-46
2021/01/26 02:12:11;;;;;;;23.70;14.20;;;2.70;99.90;;;;;;4920947;29;20457;-50
2021/01/26 02:14:42;;;;;;;27.77;15.47;;;2.60;99.90;;;;;;4920074;29;21027;-46
2021/01/26 02:17:20;;;;;;;26.03;14.80;;;2.60;99.90;;;;;;4920524;29;20452;-52
2021/01/26 02:20:23;;;;;;;27.60;13.03;;;2.60;99.90;;;;;;4920267;29;20505;-47
2021/01/26 02:23:35;;;;;;;29.43;14.93;;;2.50;99.90;;;;;;4919855;29;20473;-48
2021/01/26 02:26:40;;;;;;;27.23;13.40;;;2.40;99.90;;;;;;4920080;29;20913;-46
2021/01/26 02:29:12;;;;;;;25.57;14.80;;;2.40;99.90;;;;;;4920318;29;20441;-47
2021/01/26 02:32:02;;;;;;;26.17;15.00;;;2.40;99.90;;;;;;4919990;29;20872;-47
2021/01/26 02:35:05;;;;;;;25.63;15.40;;;2.40;99.90;;;;;;4920087;29;20500;-48
2021/01/26 02:37:47;;;;;;;27.87;15.70;;;2.40;99.90;;;;;;4920264;29;20459;-45
2021/01/26 02:40:21;;;;;;;33.17;15.23;;;2.40;99.90;;;;;;4919996;29;20461;-47
2021/01/26 02:42:53;;;;;;;23.40;13.20;;;2.40;99.90;;;;;;4920000;29;20456;-47
2021/01/26 02:45:31;;;;;;;26.93;14.67;;;2.40;99.90;;;;;;4920062;29;20444;-53
2021/01/26 02:48:26;;;;;;;25.80;13.23;;;2.40;99.90;;;;;;4920278;29;20460;-47
2021/01/26 02:51:00;;;;;;;23.67;13.13;;;2.40;99.90;;;;;;4915147;29;20488;-50
2021/01/26 02:53:34;;;;;;;20.87;13.33;;;2.30;99.90;;;;;;4919933;29;20434;-52
2021/01/26 02:56:09;;;;;;;25.70;13.60;;;2.30;99.90;;;;;;4919610;29;20500;-51
2021/01/26 02:58:41;;;;;;;28.93;13.43;;;2.30;99.90;;;;;;4922987;29;20480;-48
2021/01/26 03:01:09;;;;;;;27.20;14.37;;;2.20;99.90;;;;;;4922263;29;20441;-50
2021/01/26 03:03:38;;;;;;;25.40;13.40;;;2.20;99.90;;;;;;4919353;29;20454;-51
2021/01/26 03:06:08;;;;;;;26.97;14.23;;;2.30;99.90;;;;;;4919619;29;20454;-49
2021/01/26 03:08:38;;;;;;;26.57;14.97;;;2.30;99.90;;;;;;4919431;29;20445;-46
2021/01/26 03:11:12;;;;;;;24.13;13.50;;;2.20;99.90;;;;;;4919645;29;20440;-49
2021/01/26 03:13:42;;;;;;;28.43;14.93;;;2.20;99.90;;;;;;4919213;29;20449;-47
2021/01/26 03:16:13;;;;;;;23.27;13.47;;;2.20;99.90;;;;;;4919137;29;20493;-45
2021/01/26 03:18:44;;;;;;;25.70;12.87;;;2.20;99.90;;;;;;4925151;29;20470;-46
2021/01/26 03:21:14;;;;;;;31.63;14.87;;;2.20;99.90;;;;;;4918970;29;20450;-46
2021/01/26 03:23:44;;;;;;;28.97;14.10;;;2.20;99.90;;;;;;4919107;29;20492;-46
2021/01/26 03:26:14;;;;;;;27.60;14.10;;;2.20;99.90;;;;;;4919269;29;20509;-46
2021/01/26 03:28:43;;;;;;;23.43;12.90;;;2.20;99.90;;;;;;4919296;29;20465;-45
2021/01/26 03:31:14;;;;;;;26.70;14.00;;;2.20;99.90;;;;;;4919328;29;20454;-48
2021/01/26 03:33:45;;;;;;;22.57;12.87;;;2.20;99.90;;;;;;4918993;29;20461;-49
2021/01/26 03:36:11;;;;;;;29.77;14.17;;;2.20;99.90;;;;;;4919043;29;20855;-47
2021/01/26 03:38:38;;;;;;;15.77;10.60;;;2.10;99.90;;;;;;4918713;29;20762;-49
2021/01/26 03:41:07;;;;;;;18.73;11.70;;;2.20;99.90;;;;;;4918733;29;20916;-47
2021/01/26 03:43:34;;;;;;;27.03;15.20;;;2.10;99.90;;;;;;4918716;29;20524;-49
2021/01/26 03:46:09;;;;;;;19.77;11.77;;;2.00;99.90;;;;;;4918736;29;20472;-48
2021/01/26 03:48:49;;;;;;;20.93;11.23;;;2.00;99.90;;;;;;4918831;29;20437;-47
2021/01/26 03:51:26;;;;;;;24.23;14.47;;;1.90;99.90;;;;;;4919799;29;20453;-48
2021/01/26 03:54:21;;;;;;;26.00;13.20;;;1.90;99.90;;;;;;4918594;29;20477;-46
2021/01/26 03:57:09;;;;;;;24.93;14.40;;;1.90;99.90;;;;;;4918828;29;20775;-45
2021/01/26 03:59:49;;;;;;;26.87;14.47;;;1.80;99.90;;;;;;4886914;29;20461;-46
2021/01/26 04:02:23;;;;;;;19.77;11.37;;;1.80;99.90;;;;;;4918576;29;20476;-45
2021/01/26 04:04:56;;;;;;;24.77;14.27;;;1.80;99.90;;;;;;4918629;29;20430;-49
2021/01/26 04:07:29;;;;;;;28.50;13.30;;;1.80;99.90;;;;;;4918094;29;20466;-50
2021/01/26 04:10:00;;;;;;;21.33;12.53;;;1.80;99.90;;;;;;4918453;29;20445;-45
2021/01/26 04:12:33;;;;;;;27.50;14.00;;;1.80;99.90;;;;;;4918325;29;20908;-47
2021/01/26 04:15:05;;;;;;;26.73;10.87;;;1.80;99.90;;;;;;4918168;29;20485;-45
2021/01/26 04:17:34;;;;;;;25.27;13.60;;;1.80;99.90;;;;;;4918633;29;20457;-45
2021/01/26 04:20:04;;;;;;;26.03;15.60;;;1.80;99.90;;;;;;4918492;29;20457;-51
2021/01/26 04:22:31;;;;;;;29.37;14.13;;;1.80;99.90;;;;;;4918027;29;20938;-45
2021/01/26 04:24:58;;;;;;;21.50;12.93;;;1.80;99.90;;;;;;4917807;29;20584;-45
2021/01/26 04:27:25;;;;;;;24.37;12.67;;;1.80;99.90;;;;;;4918092;29;20464;-49
2021/01/26 04:29:52;;;;;;;22.83;12.57;;;1.70;99.90;;;;;;4918192;29;20464;-50
2021/01/26 04:32:22;;;;;;;30.00;16.17;;;1.70;99.90;;;;;;4918050;29;20461;-45
2021/01/26 04:34:48;;;;;;;24.57;12.93;;;1.70;99.90;;;;;;4917747;29;20493;-45
2021/01/26 04:37:15;;;;;;;27.07;14.97;;;1.60;99.90;;;;;;4918080;29;20461;-49
2021/01/26 04:39:41;;;;;;;26.00;13.83;;;1.60;99.90;;;;;;4917942;29;20454;-49
2021/01/26 04:42:12;;;;;;;26.43;12.90;;;1.60;99.90;;;;;;4918027;29;20520;-45
2021/01/26 04:44:57;;;;;;;27.53;13.50;;;1.70;99.90;;;;;;4918613;29;20485;-47
2021/01/26 04:47:29;;;;;;;23.60;14.53;;;1.70;99.90;;;;;;4917936;29;20512;-50
2021/01/26 04:50:02;;;;;;;24.60;13.10;;;1.60;99.90;;;;;;4917895;29;20525;-50
2021/01/26 04:52:53;;;;;;;30.07;14.57;;;1.60;99.90;;;;;;4918010;29;20469;-47
2021/01/26 04:55:32;;;;;;;24.00;12.53;;;1.60;99.90;;;;;;4910677;29;20481;-46
2021/01/26 04:58:18;;;;;;;26.83;12.20;;;1.60;99.90;;;;;;4917908;29;20442;-45
2021/01/26 05:00:54;;;;;;;25.17;12.87;;;1.60;99.90;;;;;;4917769;29;20476;-51
2021/01/26 05:03:45;;;;;;;21.13;13.20;;;1.60;99.90;;;;;;4917659;29;20476;-45
2021/01/26 05:06:16;;;;;;;21.40;12.97;;;1.60;99.90;;;;;;4917525;29;20456;-45
2021/01/26 05:08:47;;;;;;;29.53;13.97;;;1.50;99.90;;;;;;4917770;29;20446;-46
2021/01/26 05:11:16;;;;;;;25.43;13.60;;;1.50;99.90;;;;;;4917988;29;20775;-46
2021/01/26 05:13:44;;;;;;;30.77;14.33;;;1.50;99.90;;;;;;4917517;29;20485;-50
2021/01/26 05:16:19;;;;;;;25.97;14.63;;;1.50;99.90;;;;;;4917660;29;20482;-49
2021/01/26 05:18:49;;;;;;;20.87;11.63;;;1.50;99.90;;;;;;4918999;29;20453;-50
2021/01/26 05:21:25;;;;;;;31.20;15.43;;;1.50;99.90;;;;;;4921380;29;20460;-47
2021/01/26 05:23:57;;;;;;;21.60;13.37;;;1.40;99.90;;;;;;4921315;29;20544;-46
2021/01/26 05:26:23;;;;;;;27.63;13.50;;;1.40;99.90;;;;;;4921283;29;20468;-48
2021/01/26 05:28:51;;;;;;;22.00;12.20;;;1.40;99.90;;;;;;4921064;29;20457;-48
2021/01/26 05:31:26;;;;;;;23.43;12.10;;;1.30;99.90;;;;;;4921365;29;20461;-46
2021/01/26 05:33:57;;;;;;;29.53;12.80;;;1.30;99.90;;;;;;4921237;29;20465;-49
2021/01/26 05:36:24;;;;;;;21.77;12.10;;;1.30;99.90;;;;;;4920978;29;20520;-44
2021/01/26 05:38:51;;;;;;;25.43;12.70;;;1.30;99.90;;;;;;4921191;29;20551;-46
2021/01/26 05:41:19;;;;;;;25.83;15.03;;;1.30;99.90;;;;;;4921284;29;20468;-44
2021/01/26 05:43:46;;;;;;;25.20;13.77;;;1.30;99.90;;;;;;4920815;29;20453;-50
2021/01/26 05:46:32;;;;;;;25.63;14.43;;;1.20;99.90;;;;;;4920744;29;20850;-46
2021/01/26 05:48:59;;;;;;;26.13;12.97;;;1.20;99.90;;;;;;4921166;29;20464;-50
2021/01/26 05:51:28;;;;;;;22.57;12.17;;;1.20;99.90;;;;;;4920624;29;20449;-46
2021/01/26 05:53:57;;;;;;;31.03;13.97;;;1.20;99.90;;;;;;4920566;29;20918;-49
2021/01/26 05:56:25;;;;;;;29.23;14.10;;;1.20;99.90;;;;;;4920577;29;20484;-48
2021/01/26 05:58:51;;;;;;;20.63;13.43;;;1.20;99.90;;;;;;4920590;29;20500;-48
2021/01/26 06:01:28;;;;;;;27.37;12.30;;;1.20;99.90;;;;;;4920474;29;20944;-46
2021/01/26 06:04:07;;;;;;;19.73;11.50;;;1.20;99.90;;;;;;4920716;29;20508;-45
2021/01/26 06:06:48;;;;;;;29.20;11.03;;;1.20;99.90;;;;;;4920949;29;20449;-50
2021/01/26 06:09:27;;;;;;;23.90;11.53;;;1.20;99.90;;;;;;4920767;29;20488;-46
2021/01/26 06:12:04;;;;;;;21.87;12.00;;;1.10;99.90;;;;;;4920484;29;20468;-47
2021/01/26 06:14:31;;;;;;;23.40;12.20;;;1.10;99.90;;;;;;4920802;29;20477;-46
2021/01/26 06:17:04;;;;;;;17.77;9.53;;;1.10;99.90;;;;;;4920342;29;20933;-49
2021/01/26 06:19:31;;;;;;;19.00;12.10;;;1.10;99.90;;;;;;4920222;29;20449;-48
2021/01/26 06:21:58;;;;;;;23.47;11.80;;;1.10;99.90;;;;;;4920429;29;20457;-46
2021/01/26 06:24:26;;;;;;;25.30;11.23;;;1.10;99.90;;;;;;4920249;29;20500;-51
2021/01/26 06:27:12;;;;;;;23.47;11.30;;;1.00;99.90;;;;;;4920389;29;20465;-47
2021/01/26 06:29:45;;;;;;;20.93;10.50;;;1.00;99.90;;;;;;4919721;29;20433;-45
2021/01/26 06:32:21;;;;;;;20.30;10.97;;;0.90;99.90;;;;;;4920456;29;20465;-50
2021/01/26 06:35:03;;;;;;;19.50;11.03;;;0.90;99.90;;;;;;4920237;29;20540;-46
2021/01/26 06:37:58;;;;;;;22.93;11.40;;;0.90;99.90;;;;;;4919961;29;20445;-47
2021/01/26 06:40:39;;;;;;;19.93;11.23;;;0.90;99.90;;;;;;4919915;29;20454;-46
2021/01/26 06:43:17;;;;;;;16.30;10.80;;;0.90;99.90;;;;;;4919816;29;20454;-45
2021/01/26 06:45:56;;;;;;;21.17;12.80;;;0.80;99.90;;;;;;4920026;29;20468;-45
2021/01/26 06:48:44;;;;;;;22.87;12.50;;;0.80;99.90;;;;;;4920754;29;20461;-47
2021/01/26 06:51:58;;;;;;;23.50;11.50;;;0.80;99.90;;;;;;4919710;29;20450;-48
2021/01/26 06:54:40;;;;;;;15.97;10.03;;;0.80;99.90;;;;;;4861501;29;20473;-47
2021/01/26 06:57:22;;;;;;;17.90;11.77;;;0.90;99.90;;;;;;4919310;29;20465;-49
2021/01/26 07:00:19;;;;;;;21.07;10.87;;;0.90;99.90;;;;;;4919593;29;20481;-51
2021/01/26 07:03:27;;;;;;;23.13;12.47;;;0.90;99.90;;;;;;4919469;29;20456;-47
2021/01/26 07:06:18;;;;;;;27.57;12.57;;;0.90;99.90;;;;;;4919732;29;20461;-49
2021/01/26 07:09:29;;;;;;;16.77;9.53;;;1.00;99.90;;;;;;4919751;29;20461;-47
2021/01/26 07:12:09;;;;;;;22.70;14.13;;;0.90;99.90;;;;;;4861322;29;20507;-45
2021/01/26 07:15:02;;;;;;;21.50;11.40;;;0.90;99.90;;;;;;4861267;29;20843;-50
2021/01/26 07:17:43;;;;;;;18.87;12.93;;;1.00;99.90;;;;;;4903092;29;20457;-49
2021/01/26 07:20:20;;;;;;;16.77;10.40;;;1.00;99.90;;;;;;4919150;29;20773;-47
2021/01/26 07:23:22;;;;;;;23.20;12.30;;;1.10;99.90;;;;;;4919536;29;20784;-46
2021/01/26 07:26:22;;;;;;;23.17;13.23;;;1.10;99.90;;;;;;4909516;29;20445;-51
2021/01/26 07:29:21;;;;;;;20.67;11.03;;;1.10;99.90;;;;;;4895836;29;20450;-51
2021/01/26 07:31:53;;;;;;;25.03;13.60;;;1.20;99.90;;;;;;4918961;29;20470;-50
2021/01/26 07:34:27;;;;;;;25.70;13.20;;;1.10;99.90;;;;;;4919113;29;20426;-46
2021/01/26 07:36:57;;;;;;;21.63;11.03;;;1.10;99.90;;;;;;4918848;29;20480;-51
2021/01/26 07:39:35;;;;;;;20.57;12.80;;;1.00;99.90;;;;;;4919005;29;20449;-47
2021/01/26 07:42:08;;;;;;;26.20;12.33;;;1.00;99.90;;;;;;4918352;29;20533;-46
2021/01/26 07:44:41;;;;;;;21.27;12.77;;;1.10;99.90;;;;;;4918850;29;20445;-47
2021/01/26 07:47:16;;;;;;;24.00;12.83;;;1.10;99.90;;;;;;4918876;29;20528;-48
2021/01/26 07:49:50;;;;;;;32.23;14.77;;;1.20;99.90;;;;;;4919077;29;20441;-46
2021/01/26 07:52:18;;;;;;;28.77;13.90;;;1.40;99.90;;;;;;4918665;29;20457;-46
2021/01/26 07:54:53;;;;;;;21.33;12.93;;;1.40;99.90;;;;;;4918669;29;20485;-47
2021/01/26 07:57:24;;;;;;;22.00;12.47;;;1.50;99.90;;;;;;4918786;29;20741;-51
2021/01/26 07:59:53;;;;;;;23.70;13.33;;;1.50;99.90;;;;;;4918747;29;20739;-49
2021/01/26 08:02:24;;;;;;;28.60;14.50;;;1.60;99.90;;;;;;4928868;23;20524;-48
2021/01/26 08:04:51;;;;;;;20.73;12.90;;;1.60;99.90;;;;;;4957753;23;20487;-46
2021/01/26 08:07:26;;;;;;;30.93;14.50;;;1.60;99.90;;;;;;4937444;29;20449;-45
2021/01/26 08:09:54;;;;;;;24.60;13.40;;;1.60;99.90;;;;;;4937285;29;20440;-48
2021/01/26 08:12:37;;;;;;;18.90;12.10;;;1.60;99.90;;;;;;4937194;29;20508;-47
2021/01/26 08:15:12;;;;;;;27.20;13.47;;;1.60;99.90;;;;;;4937125;29;20484;-45
2021/01/26 08:17:39;;;;;;;24.03;13.33;;;1.70;99.90;;;;;;4956597;29;20435;-48
2021/01/26 08:20:09;;;;;;;23.53;13.33;;;1.80;99.90;;;;;;4956391;29;20455;-45
2021/01/26 08:22:37;;;;;;;25.60;13.83;;;1.90;99.90;;;;;;4956362;29;20464;-47
2021/01/26 08:25:08;;;;;;;24.07;12.93;;;1.90;99.90;;;;;;4956205;29;20459;-45
2021/01/26 08:27:57;;;;;;;21.40;13.30;;;1.90;99.90;;;;;;4956126;29;20427;-46
2021/01/26 08:30:56;;;;;;;24.63;12.70;;;1.90;99.90;;;;;;4955976;29;20459;-45
2021/01/26 08:33:25;;;;;;;23.87;13.27;;;1.90;99.90;;;;;;4956162;29;20447;-45
2021/01/26 08:36:11;;;;;;;21.17;12.00;;;1.90;99.90;;;;;;4955806;29;20487;-45
2021/01/26 08:39:00;;;;;;;27.67;14.47;;;1.90;99.90;;;;;;4955959;29;20474;-48
2021/01/26 08:41:48;;;;;;;18.43;12.53;;;1.90;99.90;;;;;;4950629;29;20451;-46
2021/01/26 08:44:51;;;;;;;21.70;13.17;;;2.00;99.90;;;;;;4956276;29;20432;-47
2021/01/26 08:47:47;;;;;;;22.00;13.83;;;2.00;99.90;;;;;;4956092;29;20438;-51
2021/01/26 08:50:20;;;;;;;23.23;13.10;;;2.10;99.90;;;;;;4949715;29;20911;-45
2021/01/26 08:52:47;;;;;;;29.10;14.17;;;2.20;99.90;;;;;;4955943;28;20450;-45
2021/01/26 08:55:35;;;;;;;27.27;13.30;;;2.20;99.90;;;;;;4955625;29;20515;-46
2021/01/26 08:58:02;;;;;;;23.67;15.00;;;2.20;99.90;;;;;;4955891;29;20538;-45
2021/01/26 09:00:44;;;;;;;26.20;14.70;;;2.30;99.90;;;;;;4956071;29;20444;-46
2021/01/26 09:03:35;;;;;;;27.77;12.10;;;2.30;99.90;;;;;;4955706;29;20513;-46
2021/01/26 09:06:07;;;;;;;21.50;13.00;;;2.40;99.90;;;;;;4955543;28;20537;-45
2021/01/26 09:09:00;;;;;;;22.30;12.87;;;2.50;99.90;;;;;;4956096;29;20441;-51
2021/01/26 09:11:38;;;;;;;24.13;12.53;;;2.60;99.90;;;;;;4955717;29;20458;-46
2021/01/26 09:14:24;;;;;;;25.03;13.53;;;2.60;99.90;;;;;;4955413;29;20452;-45
2021/01/26 09:16:58;;;;;;;25.67;11.60;;;2.70;99.90;;;;;;4955868;29;20440;-47
2021/01/26 09:19:32;;;;;;;24.40;13.87;;;2.70;99.90;;;;;;4966141;28;20760;-49
2021/01/26 09:22:05;;;;;;;25.90;12.43;;;2.80;99.90;;;;;;4968119;29;20594;-47
2021/01/26 09:24:36;;;;;;;23.10;12.83;;;3.00;99.90;;;;;;4968815;29;20478;-49
2021/01/26 09:27:16;;;;;;;21.50;11.90;;;3.10;99.90;;;;;;4976682;29;20443;-47
2021/01/26 09:29:44;;;;;;;21.47;13.13;;;3.10;99.90;;;;;;4976498;29;20436;-49
2021/01/26 09:32:11;;;;;;;19.40;10.70;;;3.20;99.90;;;;;;4975509;29;20740;-46
2021/01/26 09:34:38;;;;;;;21.40;13.03;;;3.30;99.90;;;;;;4974560;29;20452;-47
2021/01/26 09:37:14;;;;;;;21.97;11.67;;;3.30;99.90;;;;;;4976034;29;20523;-49
2021/01/26 09:39:40;;;;;;;23.80;14.40;;;3.40;99.90;;;;;;4973832;29;20515;-47
2021/01/26 09:42:14;;;;;;;22.33;12.10;;;3.50;99.90;;;;;;4973883;29;20451;-47
2021/01/26 09:44:40;;;;;;;21.70;12.33;;;3.50;99.90;;;;;;4974052;29;20446;-46
2021/01/26 09:47:11;;;;;;;23.47;13.70;;;3.60;99.90;;;;;;4973573;29;20455;-46
2021/01/26 09:49:38;;;;;;;21.67;11.80;;;3.90;99.90;;;;;;4971064;29;20443;-45
2021/01/26 09:52:08;;;;;;;22.57;13.43;;;4.80;99.90;;;;;;4967683;29;20463;-47
2021/01/26 09:54:37;;;;;;;22.83;11.73;;;5.90;99.90;;;;;;4959896;29;20455;-46
2021/01/26 09:57:06;;;;;;;17.77;10.50;;;7.00;99.90;;;;;;4963641;29;20475;-47
2021/01/26 09:59:35;;;;;;;17.07;9.60;;;7.40;99.90;;;;;;4963918;29;20452;-48
2021/01/26 10:02:05;;;;;;;19.53;10.97;;;7.40;99.90;;;;;;4964819;29;20466;-49
2021/01/26 10:04:36;;;;;;;17.73;10.67;;;7.60;99.90;;;;;;4964920;28;20574;-51
2021/01/26 10:07:07;;;;;;;15.77;10.00;;;7.90;99.90;;;;;;4965507;29;20496;-47
2021/01/26 10:09:35;;;;;;;15.40;10.20;;;8.20;99.90;;;;;;4972118;29;20471;-46
2021/01/26 10:12:22;;;;;;;15.23;10.60;;;8.60;99.90;;;;;;4977275;29;20440;-46
2021/01/26 10:15:10;;;;;;;18.27;11.17;;;8.60;99.90;;;;;;4960638;29;21042;-46
2021/01/26 10:17:49;;;;;;;19.63;11.00;;;8.60;99.90;;;;;;4961912;29;20555;-46
2021/01/26 10:20:24;;;;;;;20.67;11.63;;;8.60;99.90;;;;;;4964231;29;20498;-46
2021/01/26 10:23:02;;;;;;;18.63;11.00;;;9.00;99.90;;;;;;4958640;29;20443;-45
2021/01/26 10:25:31;;;;;;;19.20;10.40;;;9.60;99.90;;;;;;4960311;29;20452;-48
2021/01/26 10:28:06;;;;;;;15.90;10.17;;;10.30;99.90;;;;;;4961342;29;20930;-45
2021/01/26 10:30:40;;;;;;;17.70;12.40;;;10.80;99.90;;;;;;4960610;29;20451;-46
2021/01/26 10:33:06;;;;;;;15.80;12.37;;;11.30;99.90;;;;;;4955370;29;20482;-49
2021/01/26 10:35:39;;;;;;;17.23;13.00;;;11.40;99.90;;;;;;4957153;29;20521;-46
2021/01/26 10:38:26;;;;;;;20.40;11.63;;;11.40;99.90;;;;;;4971063;29;20448;-46
2021/01/26 10:41:06;;;;;;;14.30;11.37;;;11.40;99.90;;;;;;4962686;29;20451;-45
2021/01/26 10:43:32;;;;;;;18.83;11.23;;;10.70;99.90;;;;;;4951036;29;20476;-45
2021/01/26 10:45:59;;;;;;;18.93;12.40;;;10.40;99.90;;;;;;4960740;29;20444;-46
2021/01/26 10:48:30;;;;;;;15.20;11.40;;;10.20;99.90;;;;;;4960866;29;20451;-48
2021/01/26 10:51:09;;;;;;;16.43;11.93;;;10.10;99.90;;;;;;4957820;29;20793;-48
2021/01/26 10:53:42;;;;;;;22.73;11.30;;;9.80;99.90;;;;;;4959671;29;20794;-47
2021/01/26 10:56:10;;;;;;;18.20;12.70;;;9.50;99.90;;;;;;4959962;29;20507;-46
2021/01/26 10:58:37;;;;;;;23.77;13.60;;;8.90;99.90;;;;;;4961336;29;20459;-47
2021/01/26 11:01:04;;;;;;;20.17;13.30;;;8.40;99.90;;;;;;4963397;29;20475;-47
2021/01/26 11:03:31;;;;;;;20.40;12.47;;;8.00;99.90;;;;;;4963843;29;20554;-47
2021/01/26 11:05:57;;;;;;;19.30;12.60;;;7.90;99.90;;;;;;4964357;29;20483;-46
2021/01/26 11:08:24;;;;;;;19.87;12.33;;;7.60;99.90;;;;;;4970695;29;20454;-47
2021/01/26 11:10:51;;;;;;;19.23;11.60;;;7.20;99.90;;;;;;4965245;29;20462;-48
2021/01/26 11:13:18;;;;;;;19.00;12.00;;;6.90;99.90;;;;;;4960177;29;20460;-46
2021/01/26 11:15:44;;;;;;;20.23;13.03;;;6.70;99.90;;;;;;4960089;28;20571;-47
2021/01/26 11:18:11;;;;;;;22.47;12.50;;;6.40;99.90;;;;;;4961942;29;20466;-49
2021/01/26 11:20:38;;;;;;;19.63;12.37;;;6.10;99.90;;;;;;4963811;29;20471;-46
2021/01/26 11:23:05;;;;;;;25.63;12.63;;;5.70;99.90;;;;;;4963627;29;20807;-49
2021/01/26 11:25:31;;;;;;;25.37;12.83;;;5.50;99.90;;;;;;4959995;29;20460;-46
2021/01/26 11:27:59;;;;;;;22.87;13.90;;;5.30;99.90;;;;;;4960785;29;20455;-50
2021/01/26 11:30:28;;;;;;;23.93;12.40;;;5.10;99.90;;;;;;4960674;29;20720;-45
2021/01/26 11:32:55;;;;;;;22.63;14.43;;;4.90;99.90;;;;;;4960383;29;20464;-46
2021/01/26 11:35:27;;;;;;;29.67;14.90;;;4.70;99.90;;;;;;4963930;29;20826;-46
2021/01/26 11:37:54;;;;;;;23.97;14.47;;;4.70;99.90;;;;;;4959846;29;20491;-46
2021/01/26 11:40:21;;;;;;;23.50;13.60;;;4.60;99.90;;;;;;4959188;29;20459;-47
2021/01/26 11:42:48;;;;;;;23.03;15.37;;;4.70;99.90;;;;;;4959648;29;20806;-46
2021/01/26 11:45:19;;;;;;;20.80;12.47;;;4.70;99.90;;;;;;4958877;29;20448;-45
2021/01/26 11:47:47;;;;;;;22.50;14.43;;;4.70;99.90;;;;;;4960067;28;20459;-45
2021/01/26 11:50:14;;;;;;;21.30;13.50;;;4.70;99.90;;;;;;4966173;28;20459;-48
2021/01/26 11:52:41;;;;;;;26.00;13.97;;;4.70;99.90;;;;;;4964085;28;20440;-45
2021/01/26 11:55:11;;;;;;;23.20;15.07;;;4.70;99.90;;;;;;4967994;28;20510;-46
2021/01/26 11:57:38;;;;;;;26.33;14.53;;;4.60;99.90;;;;;;4960261;28;20949;-47
2021/01/26 12:00:06;;;;;;;26.33;14.87;;;4.60;99.90;;;;;;4959140;29;20467;-47
2021/01/26 12:02:33;;;;;;;21.63;13.53;;;4.70;99.90;;;;;;4964416;29;20448;-45
2021/01/26 12:05:00;;;;;;;26.30;15.23;;;4.70;99.90;;;;;;4959387;29;20468;-49
2021/01/26 12:07:26;;;;;;;23.30;14.23;;;4.60;99.90;;;;;;4959225;29;20499;-48
2021/01/26 12:09:52;;;;;;;21.80;14.30;;;4.70;99.90;;;;;;4958811;29;20454;-47
2021/01/26 12:12:18;;;;;;;27.20;14.87;;;4.70;99.90;;;;;;4965689;29;20450;-47
2021/01/26 12:14:45;;;;;;;25.53;16.30;;;4.70;99.90;;;;;;4963256;29;20451;-47
2021/01/26 12:17:11;;;;;;;23.30;14.00;;;4.80;99.90;;;;;;4960659;29;20463;-49
2021/01/26 12:19:44;;;;;;;26.90;15.47;;;5.00;99.90;;;;;;4964281;29;20464;-47
2021/01/26 12:22:11;;;;;;;19.70;12.80;;;5.00;99.90;;;;;;4971019;29;20773;-46
2021/01/26 12:24:37;;;;;;;28.50;14.80;;;5.00;99.90;;;;;;4958092;29;20464;-47
2021/01/26 12:27:04;;;;;;;22.40;15.87;;;5.10;99.90;;;;;;4960499;28;20473;-44
2021/01/26 12:29:30;;;;;;;27.33;16.60;;;5.10;99.90;;;;;;4958677;29;20530;-46
2021/01/26 12:31:56;;;;;;;30.70;16.60;;;5.20;99.90;;;;;;4960559;29;20744;-44
2021/01/26 12:34:25;;;;;;;26.03;15.10;;;5.20;99.90;;;;;;4960416;29;20460;-49
2021/01/26 12:36:54;;;;;;;30.37;15.13;;;5.20;99.90;;;;;;4960292;29;20479;-46
2021/01/26 12:39:21;;;;;;;37.30;16.90;;;5.30;99.90;;;;;;4955021;29;20485;-47
2021/01/26 12:41:47;;;;;;;31.20;16.47;;;5.20;99.90;;;;;;4958242;29;20459;-50
2021/01/26 12:44:14;;;;;;;25.77;14.00;;;5.20;99.90;;;;;;4956220;29;20458;-47
2021/01/26 12:46:40;;;;;;;23.00;12.53;;;5.20;99.90;;;;;;4961315;29;20517;-47
2021/01/26 12:49:07;;;;;;;27.93;15.93;;;5.20;99.90;;;;;;4959235;29;20539;-46
2021/01/26 12:51:33;;;;;;;25.17;16.27;;;5.10;99.90;;;;;;4960068;29;20468;-46
2021/01/26 12:54:01;;;;;;;29.97;17.27;;;4.90;99.90;;;;;;4962474;29;20466;-48
2021/01/26 12:56:28;;;;;;;26.93;16.97;;;4.90;99.90;;;;;;4963543;29;20483;-50
2021/01/26 12:58:54;;;;;;;28.70;16.67;;;4.80;99.90;;;;;;4958320;29;20447;-47
2021/01/26 13:01:21;;;;;;;21.23;13.80;;;4.80;99.90;;;;;;4965413;29;20479;-46
2021/01/26 13:03:48;;;;;;;26.63;15.37;;;4.70;99.90;;;;;;4964159;29;20467;-47
2021/01/26 13:06:14;;;;;;;25.00;14.40;;;4.70;99.90;;;;;;4974851;29;20475;-49
2021/01/26 13:08:41;;;;;;;25.97;15.80;;;4.50;99.90;;;;;;4966823;29;20468;-46